Aughton, United Kingdom

3:32 PM GMT on January 26, 2015 (GMT +0000)
Bickerstaffe | Change Station
CLOSE
Current Station
Personal Weather Station
Location: Bickerstaffe,
Elevation: 167 ft
Nearby Weather Stations

Elev 167 ft 53.53 °N, 2.86 °W | Updated 9 seconds ago

Scattered Clouds
Scattered Clouds
43.7 °F
Feels Like 37 °F
N
12.1
Wind Variable Wind from NW
Gusts 18.3 mph

Today
High -- | Low -- °F
--% Chance of Precip.
Yesterday
High -- | Low -- °F
Precip. -- in
8:07 AM 4:41 PM
Waxing Crescent, 44% visible
Pressure 30.24 in
Visibility 6.2 miles
Clouds Few 1500 ft
Scattered Clouds 3000 ft
Windchill 37 °F
Dew Point 36 °F
Humidity 73%
Rainfall 0.09 in
Snow Depth Not available.
UV 0 out of 12
Pollen Not available.
Air Quality Not available.
Flu Activity Not available.
METAR EGGP 261520Z 29017KT 9999 FEW015 SCT030 08/05 Q1024

More Conditions Fewer Conditions

Pressure 30.24 in
Visibility 6.2 miles
Clouds Few 1500 ft
Scattered Clouds 3000 ft
Windchill 37 °F
Dew Point 36 °F
Humidity 73%
Rainfall 0.09 in
Snow Depth Not available.
UV 0 out of 12
Pollen Not available.
Air Quality Not available.
Flu Activity Not available.
METAR EGGP 261520Z 29017KT 9999 FEW015 SCT030 08/05 Q1024

More Conditions Fewer Conditions

10-Day Weather Forecast

Almanac

Astronomy

Jan. 26, 2015 Rise Set
Actual Time
Civil Twilight
Nautical Twilight
Astronomical Twilight
Moon
Length of Visible Light
Length of Day
Tomorrow will be .
, % of the Moon is Illuminated

Today's Extremes

Country Highs Country Lows

Community

WunderPhotos

Upload Photos

1,790,246 photos uploaded!

WunderBlogs® & News

Nearby

Air Quality

  Air Quality AQ Index Pollutant
Not available.

Snow Depth

Station Depth Elevation

Earthquake Activity

City Distance Mag. Time & Date
Minimum magnitude displayed is 2.5.

Coastal Water Temperatures

Place Temperature

Nearby Weather Stations